Time;durP1;ratioP1;P1;durP2;ratioP2;P2;SDS_P1;SDS_P2;PMS_P1;PMS_P2;Temp;Humidity;BMP_temperature;BMP_pressure;BME280_temperature;BME280_humidity;BME280_pressure;Samples;Min_cycle;Max_cycle;Signal;HPM_P1;HPM_P2
2023/07/12 00:00:26;;;;;;;1999.90;999.90;;;19.50;99.90;;;;;;5075926;28;20064;-78
2023/07/12 00:02:51;;;;;;;1999.90;999.90;;;19.50;99.90;;;;;;5075549;28;20040;-77
2023/07/12 00:05:17;;;;;;;1999.90;999.90;;;19.50;99.90;;;;;;5075881;28;20033;-78
2023/07/12 00:07:46;;;;;;;1999.90;999.90;;;19.50;99.90;;;;;;5075465;28;20126;-77
2023/07/12 00:10:17;;;;;;;1999.90;999.90;;;19.50;99.90;;;;;;5075342;28;20033;-78
2023/07/12 00:12:43;;;;;;;1999.90;999.90;;;19.50;99.90;;;;;;5090835;28;20502;-77
2023/07/12 00:15:11;;;;;;;1999.90;999.90;;;19.50;99.90;;;;;;5075768;28;20029;-78
2023/07/12 00:17:37;;;;;;;1999.90;999.90;;;19.50;99.90;;;;;;5075013;28;20854;-77
2023/07/12 00:20:09;;;;;;;1999.90;999.90;;;19.50;99.90;;;;;;5075705;28;20033;-77
2023/07/12 00:22:35;;;;;;;1999.90;999.90;;;19.40;99.90;;;;;;5075341;28;20031;-77
2023/07/12 00:25:00;;;;;;;1999.90;999.90;;;19.40;99.90;;;;;;5075185;28;20029;-77
2023/07/12 00:27:26;;;;;;;1999.90;999.90;;;19.40;99.90;;;;;;5074849;28;20401;-77
2023/07/12 00:29:51;;;;;;;1999.90;999.90;;;19.40;99.90;;;;;;5075179;28;20039;-78
2023/07/12 00:32:17;;;;;;;1999.90;999.90;;;19.30;99.90;;;;;;5074790;28;20035;-77
2023/07/12 00:34:42;;;;;;;1999.90;999.90;;;19.30;99.90;;;;;;5075059;28;20382;-77
2023/07/12 00:37:14;;;;;;;1999.90;999.90;;;19.30;99.90;;;;;;5074246;28;20108;-77
2023/07/12 00:39:39;;;;;;;1999.90;999.90;;;19.30;99.90;;;;;;5073638;28;20060;-77
2023/07/12 00:42:19;;;;;;;1999.90;999.90;;;19.30;99.90;;;;;;5089972;28;20465;-78
2023/07/12 00:44:50;;;;;;;1999.90;999.90;;;19.30;99.90;;;;;;5074959;28;20025;-76
2023/07/12 00:47:16;;;;;;;1999.90;999.90;;;19.20;99.90;;;;;;5074648;28;20040;-77
2023/07/12 00:49:45;;;;;;;1999.90;999.90;;;19.20;99.90;;;;;;5074426;28;20036;-77
2023/07/12 00:52:13;;;;;;;1999.90;999.90;;;19.20;99.90;;;;;;5074453;28;20163;-78
2023/07/12 00:54:55;;;;;;;1999.90;999.90;;;19.10;99.90;;;;;;5074918;28;20036;-78
2023/07/12 00:57:25;;;;;;;1999.90;999.90;;;19.20;99.90;;;;;;5089745;28;20049;-78
2023/07/12 00:59:54;;;;;;;1999.90;999.90;;;19.10;99.90;;;;;;5090259;28;20090;-77
2023/07/12 01:02:23;;;;;;;1999.90;999.90;;;19.10;99.90;;;;;;5074513;28;20047;-77
2023/07/12 01:04:53;;;;;;;1999.90;999.90;;;19.10;99.90;;;;;;5074623;28;20410;-77
2023/07/12 01:07:20;;;;;;;1999.90;999.90;;;19.00;99.90;;;;;;5074431;28;20033;-77
2023/07/12 01:09:46;;;;;;;1999.90;999.90;;;19.00;99.90;;;;;;5074286;28;20581;-77
2023/07/12 01:12:11;;;;;;;1999.90;999.90;;;19.00;99.90;;;;;;5074444;28;20036;-77
2023/07/12 01:14:39;;;;;;;1999.90;999.90;;;19.00;99.90;;;;;;5074635;28;20061;-77
2023/07/12 01:17:06;;;;;;;1999.90;999.90;;;19.00;99.90;;;;;;5074211;28;20533;-76
2023/07/12 01:19:36;;;;;;;1999.90;999.90;;;19.00;99.90;;;;;;5073089;28;20087;-77
2023/07/12 01:22:02;;;;;;;1999.90;999.90;;;19.00;99.90;;;;;;5074076;28;20064;-76
2023/07/12 01:24:31;;;;;;;1999.90;999.90;;;19.00;99.90;;;;;;5074335;28;20064;-77
2023/07/12 01:27:00;;;;;;;1999.90;999.90;;;19.00;99.90;;;;;;5089840;28;20037;-77
2023/07/12 01:29:27;;;;;;;1999.90;999.90;;;19.00;99.90;;;;;;5074424;28;20032;-77
2023/07/12 01:31:53;;;;;;;1999.90;999.90;;;19.00;99.90;;;;;;5074550;28;20039;-77
2023/07/12 01:34:20;;;;;;;1999.90;999.90;;;19.00;99.90;;;;;;5073317;28;20033;-77
2023/07/12 01:36:46;;;;;;;1999.90;999.90;;;19.00;99.90;;;;;;5074216;28;20045;-77
2023/07/12 01:39:12;;;;;;;1999.90;999.90;;;19.00;99.90;;;;;;5073542;28;20037;-77
2023/07/12 01:41:38;;;;;;;1999.90;999.90;;;19.00;99.90;;;;;;5072674;28;20394;-77
2023/07/12 01:44:04;;;;;;;1999.90;999.90;;;19.00;99.90;;;;;;5074424;28;20115;-77
2023/07/12 01:46:31;;;;;;;1999.90;999.90;;;19.00;99.90;;;;;;5074264;28;20040;-77
2023/07/12 01:48:56;;;;;;;1999.90;999.90;;;19.00;99.90;;;;;;5076221;28;20060;-77
2023/07/12 01:51:22;;;;;;;1999.90;999.90;;;18.90;99.90;;;;;;5090336;28;20107;-77
2023/07/12 01:53:48;;;;;;;1999.90;999.90;;;18.80;99.90;;;;;;5074253;28;20108;-75
2023/07/12 01:56:14;;;;;;;1999.90;999.90;;;18.80;99.90;;;;;;5074111;28;20283;-77
2023/07/12 01:58:40;;;;;;;1999.90;999.90;;;18.80;99.90;;;;;;5073827;28;20065;-77
2023/07/12 02:01:05;;;;;;;1999.90;999.90;;;18.80;99.90;;;;;;5076873;28;20536;-77
2023/07/12 02:03:31;;;;;;;1999.90;999.90;;;18.80;99.90;;;;;;5076372;28;20059;-77
2023/07/12 02:05:57;;;;;;;1999.90;999.90;;;18.80;99.90;;;;;;5077458;28;20067;-76
2023/07/12 02:08:23;;;;;;;1999.90;999.90;;;18.80;99.90;;;;;;5077329;28;20052;-77
2023/07/12 02:10:49;;;;;;;1999.90;999.90;;;18.80;99.90;;;;;;5077474;28;20123;-76
2023/07/12 02:13:15;;;;;;;1999.90;999.90;;;18.70;99.90;;;;;;5092426;28;20549;-77
2023/07/12 02:15:40;;;;;;;1999.90;999.90;;;18.70;99.90;;;;;;5076966;28;20506;-77
2023/07/12 02:18:06;;;;;;;1999.90;999.90;;;18.70;99.90;;;;;;5076975;28;20033;-77
2023/07/12 02:20:32;;;;;;;1999.90;999.90;;;18.70;99.90;;;;;;5075713;28;20098;-77
2023/07/12 02:22:58;;;;;;;1999.90;999.90;;;18.70;99.90;;;;;;5076809;28;20490;-77
2023/07/12 02:25:24;;;;;;;1999.90;999.90;;;18.70;99.90;;;;;;5077217;28;20048;-76
2023/07/12 02:27:50;;;;;;;1999.90;999.90;;;18.70;99.90;;;;;;5076727;28;20036;-77
2023/07/12 02:30:27;;;;;;;1999.90;999.90;;;18.70;99.90;;;;;;5077077;28;20033;-77
2023/07/12 02:32:54;;;;;;;1999.90;999.90;;;18.70;99.90;;;;;;5076850;28;20175;-77
2023/07/12 02:35:21;;;;;;;1999.90;999.90;;;18.70;99.90;;;;;;5092336;28;20040;-77
2023/07/12 02:37:47;;;;;;;1999.90;999.90;;;18.70;99.90;;;;;;5092447;28;20083;-75
2023/07/12 02:40:14;;;;;;;1999.90;999.90;;;18.80;99.90;;;;;;5092208;28;20059;-75
2023/07/12 02:42:39;;;;;;;1999.90;999.90;;;18.80;99.90;;;;;;5076369;28;20033;-75
2023/07/12 02:45:07;;;;;;;1999.90;999.90;;;18.80;99.90;;;;;;5076750;28;20037;-75
2023/07/12 02:47:32;;;;;;;1999.90;999.90;;;18.80;99.90;;;;;;5075152;28;20524;-76
2023/07/12 02:49:58;;;;;;;1999.90;999.90;;;18.80;99.90;;;;;;5076816;28;20029;-75
2023/07/12 02:52:23;;;;;;;1999.90;999.90;;;18.80;99.90;;;;;;5076489;28;20052;-75
2023/07/12 02:54:49;;;;;;;1999.90;999.90;;;18.80;99.90;;;;;;5076463;28;20041;-75
2023/07/12 02:57:14;;;;;;;1999.90;999.90;;;18.80;99.90;;;;;;5076270;28;20495;-75
2023/07/12 02:59:40;;;;;;;1999.90;999.90;;;18.80;99.90;;;;;;5076561;28;20029;-74
2023/07/12 03:02:08;;;;;;;1999.90;999.90;;;18.80;99.90;;;;;;5076251;28;20721;-75
2023/07/12 03:04:34;;;;;;;1999.90;999.90;;;18.70;99.90;;;;;;5076279;28;20087;-75
2023/07/12 03:07:00;;;;;;;1999.90;999.90;;;18.80;99.90;;;;;;5076188;28;20037;-75
2023/07/12 03:09:26;;;;;;;1999.90;999.90;;;18.80;99.90;;;;;;5076245;28;20025;-75
2023/07/12 03:11:51;;;;;;;1999.90;999.90;;;18.80;99.90;;;;;;5075056;28;20037;-75
2023/07/12 03:14:18;;;;;;;1999.90;999.90;;;18.90;99.90;;;;;;5076154;28;20040;-74
2023/07/12 03:16:45;;;;;;;1999.90;999.90;;;18.80;99.90;;;;;;5091386;28;20042;-75
2023/07/12 03:19:12;;;;;;;1999.90;999.90;;;18.80;99.90;;;;;;5076138;28;20150;-74
2023/07/12 03:21:38;;;;;;;1999.90;999.90;;;18.80;99.90;;;;;;5091194;28;20087;-75
2023/07/12 03:24:04;;;;;;;1999.90;999.90;;;18.80;99.90;;;;;;5076296;28;20044;-75
2023/07/12 03:26:30;;;;;;;1999.90;999.90;;;18.90;99.90;;;;;;5075782;28;20399;-75
2023/07/12 03:28:58;;;;;;;1999.90;999.90;;;18.80;99.90;;;;;;5075766;28;20033;-75
2023/07/12 03:31:24;;;;;;;1999.90;999.90;;;18.90;99.90;;;;;;5075779;28;20028;-75
2023/07/12 03:33:49;;;;;;;1999.90;999.90;;;19.00;99.90;;;;;;5075822;28;20108;-75
2023/07/12 03:36:16;;;;;;;1999.90;999.90;;;19.00;99.90;;;;;;5074435;28;20102;-75
2023/07/12 03:38:42;;;;;;;1999.90;999.90;;;19.00;99.90;;;;;;5075713;28;20039;-75
2023/07/12 03:41:11;;;;;;;1999.90;999.90;;;19.00;99.90;;;;;;5075762;28;20032;-75
2023/07/12 03:43:37;;;;;;;1999.90;999.90;;;19.10;99.90;;;;;;5075748;28;20056;-75
2023/07/12 03:46:04;;;;;;;1999.90;999.90;;;19.10;99.90;;;;;;5074392;28;20474;-75
2023/07/12 03:48:29;;;;;;;1999.90;999.90;;;19.20;99.90;;;;;;5075303;28;20029;-75
2023/07/12 03:50:55;;;;;;;1999.90;999.90;;;19.20;99.90;;;;;;5091003;28;20037;-75
2023/07/12 03:53:22;;;;;;;1999.90;999.90;;;19.30;99.90;;;;;;5075720;28;20037;-75
2023/07/12 03:55:48;;;;;;;1999.90;999.90;;;19.30;99.90;;;;;;5075498;28;20041;-75
2023/07/12 03:58:17;;;;;;;1999.90;999.90;;;19.40;99.90;;;;;;5075568;28;20029;-75
2023/07/12 04:00:45;;;;;;;1999.90;999.90;;;19.40;99.90;;;;;;5075566;28;20033;-75
2023/07/12 04:03:11;;;;;;;1999.90;999.90;;;19.50;99.90;;;;;;5090855;28;20033;-75
2023/07/12 04:05:41;;;;;;;1999.90;999.90;;;19.60;99.90;;;;;;5075450;28;20128;-75
2023/07/12 04:08:07;;;;;;;1999.90;999.90;;;19.60;99.90;;;;;;5075169;28;20497;-75
2023/07/12 04:10:33;;;;;;;1999.90;999.90;;;19.70;99.90;;;;;;5075543;28;20487;-75
2023/07/12 04:12:59;;;;;;;1999.90;999.90;;;19.80;99.90;;;;;;5075271;28;20037;-75
2023/07/12 04:15:24;;;;;;;1999.90;999.90;;;19.80;99.90;;;;;;5075207;28;20072;-75
2023/07/12 04:17:50;;;;;;;1999.90;999.90;;;19.70;99.90;;;;;;5075169;28;20409;-75
2023/07/12 04:20:16;;;;;;;1999.90;999.90;;;19.70;99.90;;;;;;5090533;28;20083;-75
2023/07/12 04:22:42;;;;;;;1999.90;999.90;;;19.70;99.90;;;;;;5074393;28;20502;-75
2023/07/12 04:25:08;;;;;;;1999.90;999.90;;;19.60;99.90;;;;;;5074925;28;20466;-76
2023/07/12 04:27:37;;;;;;;1999.90;999.90;;;19.60;99.90;;;;;;5075028;28;20124;-75
2023/07/12 04:30:04;;;;;;;1999.90;999.90;;;19.60;99.90;;;;;;5075188;28;20033;-74
2023/07/12 04:32:30;;;;;;;1999.90;999.90;;;19.70;99.90;;;;;;5074712;28;20589;-75
2023/07/12 04:34:55;;;;;;;1999.90;999.90;;;19.70;99.90;;;;;;5090553;28;20045;-75
2023/07/12 04:37:21;;;;;;;1999.90;999.90;;;19.80;99.90;;;;;;5074554;28;20040;-75
2023/07/12 04:39:47;;;;;;;1999.90;999.90;;;19.90;99.90;;;;;;5074141;28;20043;-75
2023/07/12 04:42:13;;;;;;;1999.90;999.90;;;20.00;99.90;;;;;;5074109;28;20064;-75
2023/07/12 04:44:38;;;;;;;1999.90;999.90;;;20.00;99.90;;;;;;5074472;28;20037;-75
2023/07/12 04:47:06;;;;;;;1999.90;999.90;;;20.30;99.90;;;;;;5074528;28;20032;-75
2023/07/12 04:49:32;;;;;;;1999.90;999.90;;;20.40;99.90;;;;;;5074648;28;20036;-75
2023/07/12 04:51:58;;;;;;;1999.90;999.90;;;20.60;99.90;;;;;;5074674;28;20044;-75
2023/07/12 04:54:24;;;;;;;1999.90;999.90;;;20.70;99.90;;;;;;5074942;28;20036;-75
2023/07/12 04:56:50;;;;;;;1999.90;999.90;;;20.80;99.90;;;;;;5074584;28;20041;-75
2023/07/12 04:59:15;;;;;;;1999.90;999.90;;;20.90;99.90;;;;;;5074913;28;20052;-75
2023/07/12 05:01:41;;;;;;;1999.90;999.90;;;20.90;99.90;;;;;;5074360;28;20120;-75
2023/07/12 05:04:07;;;;;;;1999.90;999.90;;;21.10;99.90;;;;;;5074759;28;20021;-75
2023/07/12 05:06:33;;;;;;;1999.90;999.90;;;21.10;99.90;;;;;;5074976;28;20059;-76
2023/07/12 05:08:59;;;;;;;1999.90;999.90;;;21.20;99.90;;;;;;5074293;28;20083;-75
2023/07/12 05:11:24;;;;;;;1999.90;999.90;;;21.30;99.90;;;;;;5089707;28;20044;-75
2023/07/12 05:13:50;;;;;;;1999.90;999.90;;;21.30;99.90;;;;;;5074427;28;20044;-73
2023/07/12 05:16:16;;;;;;;1999.90;999.90;;;21.40;99.90;;;;;;5074565;28;20040;-73
2023/07/12 05:18:41;;;;;;;1999.90;999.90;;;21.50;99.90;;;;;;5074368;28;20482;-73
2023/07/12 05:21:07;;;;;;;1999.90;999.90;;;21.50;99.90;;;;;;5089509;28;20033;-74
2023/07/12 05:23:36;;;;;;;1999.90;999.90;;;21.50;99.90;;;;;;5074475;28;20025;-73
2023/07/12 05:26:01;;;;;;;1999.90;999.90;;;21.60;99.90;;;;;;5074301;28;20509;-73
2023/07/12 05:28:27;;;;;;;1999.90;999.90;;;21.70;99.90;;;;;;5074421;28;20053;-74
2023/07/12 05:30:52;;;;;;;1999.90;999.90;;;21.70;99.90;;;;;;5074202;28;20036;-73
2023/07/12 05:33:18;;;;;;;1999.90;999.90;;;21.80;99.90;;;;;;5074401;28;20033;-73
2023/07/12 05:35:45;;;;;;;1999.90;999.90;;;21.90;99.90;;;;;;5075209;28;20033;-74
2023/07/12 05:38:11;;;;;;;1999.90;999.90;;;21.90;99.90;;;;;;5077163;28;20152;-73
2023/07/12 05:40:37;;;;;;;1999.90;999.90;;;22.10;99.90;;;;;;5077654;28;20029;-73
2023/07/12 05:43:02;;;;;;;1999.90;999.90;;;22.10;99.90;;;;;;5077459;28;20449;-74
2023/07/12 05:45:28;;;;;;;1999.90;999.90;;;22.20;99.90;;;;;;5076063;28;20079;-74
2023/07/12 05:47:53;;;;;;;1999.90;999.90;;;22.30;99.90;;;;;;5077615;28;20499;-73
2023/07/12 05:50:20;;;;;;;1999.90;999.90;;;22.30;99.90;;;;;;5077601;28;20037;-73
2023/07/12 05:52:46;;;;;;;1999.90;999.90;;;22.40;99.90;;;;;;5077655;28;20429;-78
2023/07/12 05:55:15;;;;;;;1999.90;999.90;;;22.70;99.90;;;;;;5093246;28;20029;-72
2023/07/12 05:57:40;;;;;;;1999.90;999.90;;;22.60;99.90;;;;;;5077082;28;20033;-75
2023/07/12 06:00:10;;;;;;;1999.90;999.90;;;22.80;99.90;;;;;;5077477;28;20037;-73
2023/07/12 06:02:37;;;;;;;1999.90;999.90;;;22.90;99.90;;;;;;5076197;28;20041;-74
2023/07/12 06:05:03;;;;;;;1999.90;999.90;;;22.90;99.90;;;;;;5077391;28;20040;-74
2023/07/12 06:07:29;;;;;;;1999.90;999.90;;;22.90;99.90;;;;;;5077050;28;20524;-74
2023/07/12 06:09:54;;;;;;;1999.90;999.90;;;23.00;99.90;;;;;;5077432;28;20052;-75
2023/07/12 06:12:20;;;;;;;1999.90;999.90;;;23.10;99.90;;;;;;5076998;28;20059;-74
2023/07/12 06:14:45;;;;;;;1999.90;999.90;;;23.10;99.90;;;;;;5077418;28;20036;-75
2023/07/12 06:17:11;;;;;;;1999.90;999.90;;;23.00;99.90;;;;;;5076658;28;20049;-75
2023/07/12 06:19:36;;;;;;;1999.90;999.90;;;23.20;99.90;;;;;;5076992;28;20032;-77
2023/07/12 06:22:02;;;;;;;1999.90;999.90;;;23.40;99.90;;;;;;5076868;28;20029;-75
2023/07/12 06:24:28;;;;;;;1999.90;999.90;;;23.70;99.90;;;;;;5077083;28;20033;-75
2023/07/12 06:26:54;;;;;;;1999.90;999.90;;;23.60;99.90;;;;;;5076990;28;20490;-75
2023/07/12 06:29:20;;;;;;;1999.90;999.90;;;23.70;99.90;;;;;;5076590;28;20033;-75
2023/07/12 06:31:45;;;;;;;1999.90;999.90;;;23.70;99.90;;;;;;5076909;28;20033;-76
2023/07/12 06:34:11;;;;;;;1999.90;999.90;;;23.60;99.90;;;;;;5077065;28;20032;-75
2023/07/12 06:36:37;;;;;;;1999.90;999.90;;;23.70;99.90;;;;;;5092188;28;20043;-75
2023/07/12 06:39:03;;;;;;;1999.90;999.90;;;23.70;99.90;;;;;;5092114;28;20041;-75
2023/07/12 06:41:29;;;;;;;1999.90;999.90;;;23.70;99.90;;;;;;5076575;28;20044;-75
2023/07/12 06:43:54;;;;;;;1999.90;999.90;;;23.80;99.90;;;;;;5076801;28;20103;-75
2023/07/12 06:46:20;;;;;;;1999.90;999.90;;;23.80;99.90;;;;;;5074114;28;20044;-74
2023/07/12 06:48:46;;;;;;;1999.90;999.90;;;23.80;99.90;;;;;;5076599;28;20494;-74
2023/07/12 06:51:11;;;;;;;1999.90;999.90;;;23.90;99.90;;;;;;5076541;28;20037;-73
2023/07/12 06:53:37;;;;;;;1999.90;999.90;;;24.00;99.90;;;;;;5076785;28;20500;-74
2023/07/12 06:56:03;;;;;;;1999.90;999.90;;;23.90;99.90;;;;;;5074895;28;20040;-74
2023/07/12 06:58:28;;;;;;;1999.90;999.90;;;24.00;99.90;;;;;;5074983;28;20061;-73
2023/07/12 07:00:54;;;;;;;1999.90;999.90;;;24.00;99.90;;;;;;5076192;28;20033;-76
2023/07/12 07:03:20;;;;;;;1999.90;999.90;;;23.90;99.90;;;;;;5076586;28;20044;-74
2023/07/12 07:05:47;;;;;;;1999.90;999.90;;;24.00;99.90;;;;;;5076553;28;20041;-73
2023/07/12 07:08:18;;;;;;;1999.90;999.90;;;24.30;99.90;;;;;;5076315;28;20052;-73
2023/07/12 07:10:49;;;;;;;1999.90;999.90;;;24.20;99.90;;;;;;5075615;28;20499;-74
2023/07/12 07:13:15;;;;;;;1999.90;999.90;;;24.10;99.90;;;;;;5076291;28;20037;-71
2023/07/12 07:15:40;;;;;;;1999.90;999.90;;;24.10;99.90;;;;;;5076306;28;20041;-74
2023/07/12 07:18:07;;;;;;;1999.90;999.90;;;24.00;99.90;;;;;;5076149;28;20060;-71
2023/07/12 07:20:33;;;;;;;1999.90;999.90;;;24.00;99.90;;;;;;5074701;28;20041;-74
2023/07/12 07:22:59;;;;;;;1999.90;999.90;;;23.80;99.90;;;;;;5076027;28;20029;-74
2023/07/12 07:25:26;;;;;;;1999.90;999.90;;;23.80;99.90;;;;;;5076200;28;20037;-72
2023/07/12 07:27:52;;;;;;;1999.90;999.90;;;23.80;99.90;;;;;;5075730;28;20033;-71
2023/07/12 07:30:18;;;;;;;1999.90;999.90;;;23.80;99.90;;;;;;5075965;28;20037;-75
2023/07/12 07:32:44;;;;;;;1999.90;999.90;;;23.90;99.90;;;;;;5091241;28;20087;-72
2023/07/12 07:35:11;;;;;;;1999.90;999.90;;;24.00;99.90;;;;;;5074467;28;20044;-75
2023/07/12 07:37:37;;;;;;;1999.90;999.90;;;24.00;99.90;;;;;;5075480;28;20045;-73
2023/07/12 07:40:03;;;;;;;1999.90;999.90;;;24.00;99.90;;;;;;5075917;28;20087;-73
2023/07/12 07:42:29;;;;;;;1999.90;999.90;;;24.20;99.90;;;;;;5075644;28;20033;-72
2023/07/12 07:44:54;;;;;;;1999.90;999.90;;;24.30;99.90;;;;;;5075659;28;20033;-75
2023/07/12 07:47:21;;;;;;;1999.90;999.90;;;24.50;99.90;;;;;;5075080;28;20044;-72
2023/07/12 07:49:46;;;;;;;1999.90;999.90;;;24.70;99.90;;;;;;5073930;28;20091;-72
2023/07/12 07:52:12;;;;;;;1999.90;999.90;;;24.80;99.90;;;;;;5074789;28;20497;-72
2023/07/12 07:54:39;;;;;;;1999.90;999.90;;;25.00;99.90;;;;;;5075422;28;20471;-75
2023/07/12 07:57:05;;;;;;;1999.90;999.90;;;25.20;99.90;;;;;;5073914;28;20037;-74
2023/07/12 07:59:31;;;;;;;1999.90;999.90;;;25.60;99.90;;;;;;5075116;28;20510;-74
2023/07/12 08:01:58;;;;;;;1999.90;999.90;;;25.80;99.90;;;;;;5075400;28;20131;-74
2023/07/12 08:04:24;;;;;;;1999.90;999.90;;;25.90;99.90;;;;;;5075570;28;20029;-74
2023/07/12 08:06:50;;;;;;;1999.90;999.90;;;25.80;99.90;;;;;;5074763;28;20037;-74
2023/07/12 08:09:16;;;;;;;1999.90;999.90;;;25.50;99.90;;;;;;5075186;28;20024;-74
2023/07/12 08:11:42;;;;;;;1999.90;999.90;;;25.50;99.90;;;;;;5075000;28;20082;-74
2023/07/12 08:14:07;;;;;;;1999.90;999.90;;;25.40;99.90;;;;;;5075485;28;20074;-75
2023/07/12 08:16:35;;;;;;;1999.90;999.90;;;25.50;99.90;;;;;;5075152;28;20437;-75
2023/07/12 08:19:02;;;;;;;1999.90;999.90;;;25.40;99.90;;;;;;5075085;28;20052;-75
2023/07/12 08:21:28;;;;;;;1999.90;999.90;;;25.40;99.90;;;;;;5075070;28;20528;-75
2023/07/12 08:23:54;;;;;;;1999.90;999.90;;;25.90;99.90;;;;;;5075297;28;20033;-75
2023/07/12 08:26:19;;;;;;;1999.90;999.90;;;25.90;99.90;;;;;;5075212;28;20491;-74
2023/07/12 08:28:46;;;;;;;1999.90;999.90;;;25.90;99.90;;;;;;5073072;28;20029;-74
2023/07/12 08:31:11;;;;;;;1999.90;999.90;;;26.40;99.90;;;;;;5074300;28;20162;-75
2023/07/12 08:33:37;;;;;;;1999.90;999.90;;;26.50;99.90;;;;;;5075125;28;20460;-74
2023/07/12 08:36:03;;;;;;;1999.90;999.90;;;26.50;99.90;;;;;;5074991;28;20493;-75
2023/07/12 08:38:31;;;;;;;1999.90;999.90;;;26.50;99.90;;;;;;5084864;22;20056;-66
2023/07/12 08:40:57;;;;;;;1999.90;999.90;;;26.60;99.90;;;;;;5052337;28;20042;-66
2023/07/12 08:43:30;;;;;;;1999.90;999.90;;;26.50;99.90;;;;;;5054561;28;20033;-66
2023/07/12 08:46:05;;;;;;;1999.90;999.90;;;26.80;99.90;;;;;;5054914;28;20111;-66
2023/07/12 08:48:31;;;;;;;1999.90;999.90;;;27.70;99.90;;;;;;5054388;28;20034;-66
2023/07/12 08:50:57;;;;;;;1999.90;999.90;;;28.30;99.90;;;;;;5054327;28;20103;-75
2023/07/12 08:53:29;;;;;;;1999.90;999.90;;;28.30;99.90;;;;;;5054452;28;20037;-66
2023/07/12 08:55:59;;;;;;;1999.90;999.90;;;28.10;99.60;;;;;;5052959;28;20044;-66
2023/07/12 08:58:33;;;;;;;1999.90;999.90;;;27.60;99.80;;;;;;5054200;28;20129;-67
2023/07/12 09:01:05;;;;;;;1999.90;999.90;;;27.10;99.90;;;;;;5054411;28;20107;-68
2023/07/12 09:03:31;;;;;;;1999.90;999.90;;;26.60;99.90;;;;;;5054518;28;20529;-66
2023/07/12 09:05:58;;;;;;;1999.90;999.90;;;26.30;99.90;;;;;;5054408;28;20121;-66
2023/07/12 09:08:49;;;;;;;1999.90;999.90;;;26.20;99.90;;;;;;5053655;28;20053;-66
2023/07/12 09:11:26;;;;;;;1999.90;999.90;;;26.30;99.90;;;;;;5054072;28;20084;-66
2023/07/12 09:13:56;;;;;;;1999.90;999.90;;;26.50;99.90;;;;;;5052898;28;20040;-68
2023/07/12 09:16:30;;;;;;;1999.90;999.90;;;27.40;98.80;;;;;;5053900;28;20041;-71
2023/07/12 09:18:57;;;;;;;1999.90;999.90;;;28.10;97.30;;;;;;5053986;28;20434;-68
2023/07/12 09:21:26;;;;;;;1999.90;999.90;;;28.10;98.50;;;;;;5052589;28;20057;-75
2023/07/12 09:23:58;;;;;;;1999.90;999.90;;;27.90;97.50;;;;;;5053961;28;20036;-68
2023/07/12 09:26:29;;;;;;;1999.90;999.90;;;28.20;97.50;;;;;;5052587;28;20166;-68
2023/07/12 09:29:03;;;;;;;1999.90;999.90;;;28.20;96.90;;;;;;5053949;28;20030;-70
2023/07/12 09:31:30;;;;;;;1999.90;999.90;;;28.10;96.50;;;;;;5054020;28;20034;-70
2023/07/12 09:34:00;;;;;;;1999.90;999.90;;;27.80;96.70;;;;;;5054188;28;20053;-70
2023/07/12 09:36:26;;;;;;;1999.90;999.90;;;27.30;96.80;;;;;;5054089;28;20042;-69
2023/07/12 09:38:52;;;;;;;1999.90;999.90;;;27.30;97.00;;;;;;5052939;28;20056;-69
2023/07/12 09:41:22;;;;;;;1999.90;999.90;;;27.30;97.20;;;;;;5053615;28;20033;-69
2023/07/12 09:43:56;;;;;;;1999.90;999.90;;;27.40;97.40;;;;;;5053645;28;20033;-69
2023/07/12 09:46:39;;;;;;;1999.90;999.90;;;27.50;96.50;;;;;;5053944;28;20037;-69
2023/07/12 09:49:16;;;;;;;1999.90;999.90;;;27.60;96.40;;;;;;5053481;28;20487;-69
2023/07/12 09:51:53;;;;;;;1999.90;999.90;;;28.30;95.70;;;;;;5053748;28;20042;-72
2023/07/12 09:55:00;;;;;;;1999.90;999.90;;;28.80;95.30;;;;;;5053986;28;20052;-70
2023/07/12 09:57:31;;;;;;;1999.90;999.90;;;29.20;94.20;;;;;;5052041;28;20427;-69
2023/07/12 10:00:00;;;;;;;1999.90;999.90;;;29.60;93.80;;;;;;5053612;28;20064;-69
2023/07/12 10:02:44;;;;;;;1999.90;999.90;;;29.70;91.60;;;;;;5053222;28;20498;-69
2023/07/12 10:05:22;;;;;;;1999.90;999.90;;;29.70;92.30;;;;;;5053882;28;20555;-69
2023/07/12 10:08:13;;;;;;;1999.90;999.90;;;29.90;90.90;;;;;;5050816;28;20041;-71
2023/07/12 10:11:21;;;;;;;1999.90;999.90;;;30.60;90.00;;;;;;5050328;28;20045;-70
2023/07/12 10:13:52;;;;;;;1999.90;999.90;;;31.00;87.20;;;;;;5053180;28;20136;-76
2023/07/12 10:16:25;;;;;;;1999.90;999.90;;;30.70;85.00;;;;;;5053727;28;20041;-70
2023/07/12 10:18:51;;;;;;;1999.90;999.90;;;30.70;87.20;;;;;;5053771;28;20037;-71
2023/07/12 10:21:20;;;;;;;1999.90;999.90;;;30.50;86.00;;;;;;5052776;28;20095;-75
2023/07/12 10:23:54;;;;;;;1999.90;999.90;;;30.20;85.30;;;;;;5056820;28;20036;-73
2023/07/12 10:26:19;;;;;;;1999.90;999.90;;;29.90;84.60;;;;;;5057128;28;20033;-76
2023/07/12 10:29:03;;;;;;;1999.90;999.90;;;29.50;85.60;;;;;;5057128;28;20044;-76
2023/07/12 10:31:56;;;;;;;1999.90;999.90;;;29.40;88.90;;;;;;5055461;28;20041;-79
2023/07/12 10:34:38;;;;;;;1999.90;999.90;;;29.70;86.70;;;;;;5056958;28;20442;-73
2023/07/12 10:37:33;;;;;;;1999.90;999.90;;;29.70;85.50;;;;;;5056396;28;20042;-72
2023/07/12 10:39:59;;;;;;;1999.90;999.90;;;29.20;87.50;;;;;;5056396;28;20495;-72
2023/07/12 10:42:32;;;;;;;1999.90;999.90;;;29.00;86.50;;;;;;5056457;28;20037;-72
2023/07/12 10:45:00;;;;;;;1999.90;999.90;;;29.30;84.50;;;;;;5056594;28;20562;-71
2023/07/12 10:47:35;;;;;;;1999.90;999.90;;;29.30;82.50;;;;;;5056413;28;20033;-70
2023/07/12 10:50:07;;;;;;;1999.90;999.90;;;29.60;81.50;;;;;;5056418;28;20113;-74
2023/07/12 10:52:53;;;;;;;1999.90;999.90;;;29.80;81.80;;;;;;5056265;28;20029;-73
2023/07/12 10:55:39;;;;;;;1999.90;999.90;;;30.50;80.60;;;;;;5056505;28;20025;-73
2023/07/12 10:58:19;;;;;;;1999.90;999.90;;;31.40;82.40;;;;;;5056556;28;20592;-72
2023/07/12 11:00:53;;;;;;;1999.90;999.90;;;30.60;81.70;;;;;;5056128;28;20037;-72
2023/07/12 11:03:39;;;;;;;1999.90;999.90;;;29.90;80.10;;;;;;5055509;28;20029;-74
2023/07/12 11:06:23;;;;;;;1999.90;999.90;;;29.40;81.40;;;;;;5054317;28;20022;-74
2023/07/12 11:09:06;;;;;;;1999.90;999.90;;;29.20;79.60;;;;;;5055235;28;20083;-74
2023/07/12 11:11:44;;;;;;;1999.90;999.90;;;29.20;79.50;;;;;;5055770;28;20037;-74
2023/07/12 11:14:17;;;;;;;1999.90;999.90;;;29.10;79.20;;;;;;5056213;28;20510;-74
2023/07/12 11:16:47;;;;;;;1999.90;999.90;;;29.00;80.00;;;;;;5056333;28;20125;-72
2023/07/12 11:19:40;;;;;;;1999.90;999.90;;;29.80;79.50;;;;;;5054346;28;20029;-75
2023/07/12 11:22:43;;;;;;;1999.90;999.90;;;30.80;77.50;;;;;;5055654;28;20033;-73
2023/07/12 11:25:30;;;;;;;1999.90;999.90;;;31.40;74.40;;;;;;5055400;28;20411;-73
2023/07/12 11:28:00;;;;;;;1999.90;999.90;;;31.60;73.20;;;;;;5056035;28;20124;-75
2023/07/12 11:30:39;;;;;;;1999.90;999.90;;;31.30;71.80;;;;;;5057009;28;20061;-76
2023/07/12 11:33:17;;;;;;;1999.90;999.90;;;31.10;71.10;;;;;;5055439;28;20037;-75
2023/07/12 11:35:47;;;;;;;1999.90;999.90;;;30.60;74.30;;;;;;5056059;28;20514;-76
2023/07/12 11:38:34;;;;;;;1999.90;999.90;;;30.70;75.30;;;;;;5054669;28;20037;-77
2023/07/12 11:41:14;;;;;;;1999.90;999.90;;;31.20;72.10;;;;;;5055225;28;20036;-74
2023/07/12 11:43:40;;;;;;;1999.90;999.90;;;31.30;73.50;;;;;;5055606;28;20533;-74
2023/07/12 11:46:23;;;;;;;1999.90;999.90;;;31.80;73.00;;;;;;5055203;28;20044;-74
2023/07/12 11:48:54;;;;;;;1999.90;999.90;;;32.10;68.40;;;;;;5055450;28;20037;-74
2023/07/12 11:51:41;;;;;;;1999.90;999.90;;;32.30;69.00;;;;;;5054855;28;20033;-74
2023/07/12 11:54:27;;;;;;;1999.90;999.90;;;32.20;70.10;;;;;;5055450;28;20037;-73
2023/07/12 11:56:58;;;;;;;1999.90;999.90;;;31.00;70.30;;;;;;5055480;28;20088;-72
2023/07/12 11:59:26;;;;;;;1999.90;999.90;;;30.90;71.80;;;;;;5055846;28;20029;-73
2023/07/12 12:01:52;;;;;;;1999.90;999.90;;;30.60;72.00;;;;;;5054907;28;20522;-73
2023/07/12 12:04:21;;;;;;;1999.90;999.90;;;30.20;73.00;;;;;;5055264;28;20068;-73
2023/07/12 12:06:51;;;;;;;1999.90;999.90;;;30.40;73.70;;;;;;5054976;28;20080;-73